Time;durP1;ratioP1;P1;durP2;ratioP2;P2;SDS_P1;SDS_P2;PMS_P1;PMS_P2;Temp;Humidity;BMP_temperature;BMP_pressure;BME280_temperature;BME280_humidity;BME280_pressure;Samples;Min_cycle;Max_cycle;Signal;HPM_P1;HPM_P2
2022/04/26 03:36:14;;;;;;;;;;;23.00;45.20;;;;;;673100;29;983;-80
2022/04/26 03:36:34;;;;;;;;;;;23.00;45.20;;;;;;672968;29;1034;-82
2022/04/26 03:36:55;;;;;;;;;;;22.90;45.10;;;;;;672588;29;1091;-81
2022/04/26 03:37:19;;;;;;;;;;;22.90;45.20;;;;;;672662;29;832;-80
2022/04/26 03:37:40;;;;;;;;;;;22.90;45.10;;;;;;670172;29;1742;-82
2022/04/26 03:38:00;;;;;;;;;;;23.00;45.20;;;;;;670362;29;824;-82
2022/04/26 03:38:21;;;;;;;;;;;22.90;45.10;;;;;;670163;29;828;-81
2022/04/26 03:38:43;;;;;;;;;;;23.00;45.20;;;;;;670202;29;793;-81
2022/04/26 03:39:04;;;;;;;;;;;23.00;45.10;;;;;;670322;29;848;-81
2022/04/26 03:39:24;;;;;;;;;;;22.90;45.10;;;;;;670703;29;786;-80
2022/04/26 03:39:45;;;;;;;;;;;22.90;45.00;;;;;;673053;29;998;-80
2022/04/26 03:40:06;;;;;;;;;;;23.00;45.10;;;;;;670864;29;1235;-80
2022/04/26 03:40:27;;;;;;;;;;;22.90;45.10;;;;;;670826;29;849;-80
2022/04/26 03:40:48;;;;;;;;;;;23.00;45.10;;;;;;667792;29;1452;-82
2022/04/26 03:41:09;;;;;;;;;;;23.00;45.10;;;;;;667797;29;833;-82
2022/04/26 03:41:30;;;;;;;;;;;22.90;45.10;;;;;;668254;29;837;-80
2022/04/26 03:41:51;;;;;;;;;;;22.90;45.20;;;;;;669038;29;785;-81
2022/04/26 03:42:12;;;;;;;;;;;22.90;45.10;;;;;;670926;29;966;-80
2022/04/26 03:42:33;;;;;;;;;;;22.90;45.20;;;;;;671456;29;824;-81
2022/04/26 03:42:54;;;;;;;;;;;22.90;45.20;;;;;;673265;29;1053;-80
2022/04/26 03:43:14;;;;;;;;;;;23.00;45.20;;;;;;673938;29;999;-80
2022/04/26 03:43:35;;;;;;;;;;;22.90;45.20;;;;;;676272;29;875;-81
2022/04/26 03:43:56;;;;;;;;;;;22.90;45.30;;;;;;676134;29;848;-81
2022/04/26 03:44:17;;;;;;;;;;;23.00;45.30;;;;;;676007;29;879;-81
2022/04/26 03:44:37;;;;;;;;;;;23.00;45.30;;;;;;675955;29;1207;-81
2022/04/26 03:44:58;;;;;;;;;;;22.90;45.20;;;;;;676106;29;852;-81
2022/04/26 03:45:19;;;;;;;;;;;23.00;45.20;;;;;;676108;29;788;-82
2022/04/26 03:45:39;;;;;;;;;;;23.00;45.20;;;;;;676294;29;914;-82
2022/04/26 03:46:00;;;;;;;;;;;23.00;45.20;;;;;;673835;29;887;-81
2022/04/26 03:46:20;;;;;;;;;;;23.00;45.10;;;;;;674298;29;907;-81
2022/04/26 03:46:41;;;;;;;;;;;23.00;45.10;;;;;;674161;29;899;-81
2022/04/26 03:47:02;;;;;;;;;;;23.00;45.10;;;;;;674245;29;904;-80
2022/04/26 03:47:22;;;;;;;;;;;23.00;45.10;;;;;;676268;29;1002;-81
2022/04/26 03:47:43;;;;;;;;;;;23.00;45.10;;;;;;676861;29;796;-80
2022/04/26 03:48:04;;;;;;;;;;;23.00;45.10;;;;;;679336;29;800;-81
2022/04/26 03:48:25;;;;;;;;;;;23.00;45.40;;;;;;679212;29;1944;-79
2022/04/26 03:48:45;;;;;;;;;;;23.00;45.10;;;;;;679557;29;1054;-80
2022/04/26 03:49:06;;;;;;;;;;;23.00;45.00;;;;;;681442;28;946;-81
2022/04/26 03:49:27;;;;;;;;;;;23.00;45.00;;;;;;687111;28;985;-82
2022/04/26 03:49:47;;;;;;;;;;;23.00;44.90;;;;;;687284;28;846;-79
2022/04/26 03:50:08;;;;;;;;;;;23.00;45.00;;;;;;687273;28;795;-82
2022/04/26 03:50:28;;;;;;;;;;;23.00;45.00;;;;;;687128;28;1032;-81
2022/04/26 03:50:49;;;;;;;;;;;23.00;44.90;;;;;;687125;28;847;-81
2022/04/26 03:51:10;;;;;;;;;;;23.00;44.90;;;;;;687163;28;787;-81
2022/04/26 03:51:30;;;;;;;;;;;23.00;44.90;;;;;;687332;28;858;-81
2022/04/26 03:51:54;;;;;;;;;;;23.00;44.90;;;;;;687022;28;906;-81
2022/04/26 03:52:15;;;;;;;;;;;23.00;44.80;;;;;;687006;28;842;-81
2022/04/26 03:52:35;;;;;;;;;;;23.00;44.80;;;;;;686829;28;1085;-80
2022/04/26 03:52:56;;;;;;;;;;;23.00;44.80;;;;;;686711;28;831;-81
2022/04/26 03:53:17;;;;;;;;;;;23.00;44.70;;;;;;686415;28;898;-80
2022/04/26 03:53:37;;;;;;;;;;;23.10;44.80;;;;;;686487;28;908;-80
2022/04/26 03:53:58;;;;;;;;;;;23.10;44.80;;;;;;686771;28;835;-80
2022/04/26 03:54:22;;;;;;;;;;;23.10;44.80;;;;;;686499;28;1214;-81
2022/04/26 03:54:42;;;;;;;;;;;23.10;44.80;;;;;;686713;28;906;-80
2022/04/26 03:55:03;;;;;;;;;;;23.10;44.80;;;;;;686742;28;795;-80
2022/04/26 03:55:24;;;;;;;;;;;23.10;44.70;;;;;;686583;28;773;-81
2022/04/26 03:55:44;;;;;;;;;;;23.10;44.80;;;;;;686570;28;1022;-81
2022/04/26 03:56:05;;;;;;;;;;;23.10;44.70;;;;;;686761;28;904;-80
2022/04/26 03:56:26;;;;;;;;;;;23.10;44.70;;;;;;686650;28;776;-80
2022/04/26 03:56:46;;;;;;;;;;;23.10;44.70;;;;;;686532;28;807;-81
2022/04/26 03:57:07;;;;;;;;;;;23.10;45.00;;;;;;686624;28;893;-80
2022/04/26 03:57:27;;;;;;;;;;;23.10;45.20;;;;;;686690;28;997;-81
2022/04/26 03:57:48;;;;;;;;;;;21.80;44.10;;;;;;686387;28;862;-82
2022/04/26 03:58:08;;;;;;;;;;;23.10;44.60;;;;;;686674;28;827;-82
2022/04/26 03:58:29;;;;;;;;;;;23.10;45.00;;;;;;686344;28;803;-80
2022/04/26 03:58:50;;;;;;;;;;;23.10;44.80;;;;;;686178;28;865;-81
2022/04/26 03:59:10;;;;;;;;;;;23.10;45.60;;;;;;686043;28;724;-81
2022/04/26 03:59:31;;;;;;;;;;;23.10;45.10;;;;;;686220;28;894;-81
2022/04/26 03:59:51;;;;;;;;;;;23.10;44.60;;;;;;686146;28;787;-81
2022/04/26 04:00:12;;;;;;;;;;;23.10;45.20;;;;;;685952;28;1312;-80
2022/04/26 04:00:33;;;;;;;;;;;23.10;45.00;;;;;;686146;28;998;-83
2022/04/26 04:00:54;;;;;;;;;;;23.10;44.90;;;;;;685908;28;1558;-81
2022/04/26 04:01:15;;;;;;;;;;;23.10;44.80;;;;;;686136;28;858;-81
2022/04/26 04:01:36;;;;;;;;;;;23.10;44.60;;;;;;686007;28;1233;-81
2022/04/26 04:01:56;;;;;;;;;;;23.10;44.50;;;;;;685618;28;890;-81
2022/04/26 04:02:17;;;;;;;;;;;23.20;44.60;;;;;;683338;29;1183;-81
2022/04/26 04:02:37;;;;;;;;;;;23.10;44.40;;;;;;683825;28;796;-82
2022/04/26 04:02:58;;;;;;;;;;;23.10;44.30;;;;;;685892;28;989;-81
2022/04/26 04:03:19;;;;;;;;;;;23.10;44.40;;;;;;686003;28;759;-83
2022/04/26 04:03:39;;;;;;;;;;;23.10;45.50;;;;;;686133;28;862;-83
2022/04/26 04:04:00;;;;;;;;;;;23.10;44.50;;;;;;686176;28;909;-82
2022/04/26 04:04:20;;;;;;;;;;;23.10;44.30;;;;;;683262;29;1579;-82
2022/04/26 04:04:41;;;;;;;;;;;23.10;44.40;;;;;;683418;29;843;-81
2022/04/26 04:05:01;;;;;;;;;;;23.10;44.30;;;;;;683412;29;850;-82
2022/04/26 04:05:24;;;;;;;;;;;23.10;44.30;;;;;;683317;29;903;-82
2022/04/26 04:05:44;;;;;;;;;;;23.20;44.30;;;;;;683340;29;878;-81
2022/04/26 04:06:06;;;;;;;;;;;23.10;44.30;;;;;;683981;28;787;-81
2022/04/26 04:06:27;;;;;;;;;;;23.10;44.30;;;;;;685939;28;854;-81
2022/04/26 04:06:47;;;;;;;;;;;23.10;44.30;;;;;;685895;28;873;-81
2022/04/26 04:07:08;;;;;;;;;;;23.20;44.40;;;;;;686058;28;925;-82
2022/04/26 04:07:28;;;;;;;;;;;23.20;44.30;;;;;;686009;28;605;-82
2022/04/26 04:07:49;;;;;;;;;;;23.10;44.20;;;;;;685880;28;854;-82
2022/04/26 04:08:10;;;;;;;;;;;23.10;44.20;;;;;;685984;28;965;-82
2022/04/26 04:08:30;;;;;;;;;;;23.20;45.50;;;;;;686137;28;1951;-81
2022/04/26 04:08:51;;;;;;;;;;;23.10;44.20;;;;;;693992;28;1044;-81
2022/04/26 04:09:11;;;;;;;;;;;23.20;44.20;;;;;;694307;28;898;-81
2022/04/26 04:09:32;;;;;;;;;;;23.20;44.30;;;;;;694563;28;825;-82
2022/04/26 04:09:54;;;;;;;;;;;23.20;44.20;;;;;;694579;28;980;-81
2022/04/26 04:10:15;;;;;;;;;;;23.20;44.20;;;;;;694408;28;888;-82
2022/04/26 04:10:35;;;;;;;;;;;23.20;44.30;;;;;;691474;28;1323;-81
2022/04/26 04:10:58;;;;;;;;;;;23.20;44.20;;;;;;691431;28;866;-81
2022/04/26 04:11:19;;;;;;;;;;;23.10;44.20;;;;;;691495;28;849;-82
2022/04/26 04:11:39;;;;;;;;;;;23.10;44.30;;;;;;691488;28;786;-83
2022/04/26 04:12:00;;;;;;;;;;;23.20;45.00;;;;;;691564;28;842;-81
2022/04/26 04:12:20;;;;;;;;;;;23.10;44.50;;;;;;692032;28;794;-81
2022/04/26 04:12:41;;;;;;;;;;;23.10;44.30;;;;;;694406;28;810;-81
2022/04/26 04:13:01;;;;;;;;;;;23.10;44.70;;;;;;694502;28;988;-82
2022/04/26 04:13:22;;;;;;;;;;;23.10;44.30;;;;;;694307;28;1063;-80
2022/04/26 04:13:43;;;;;;;;;;;23.10;44.20;;;;;;694379;28;834;-82
2022/04/26 04:14:03;;;;;;;;;;;23.10;44.20;;;;;;694500;28;861;-81
2022/04/26 04:14:24;;;;;;;;;;;23.10;44.20;;;;;;694332;28;981;-81
2022/04/26 04:14:44;;;;;;;;;;;23.10;44.20;;;;;;694200;28;865;-82
2022/04/26 04:15:05;;;;;;;;;;;23.10;44.20;;;;;;694130;28;1312;-81
2022/04/26 04:15:26;;;;;;;;;;;23.10;44.50;;;;;;694210;28;822;-81
2022/04/26 04:15:46;;;;;;;;;;;23.10;44.30;;;;;;694023;28;1239;-81
2022/04/26 04:16:07;;;;;;;;;;;23.10;44.20;;;;;;694288;28;871;-81
2022/04/26 04:16:28;;;;;;;;;;;23.10;44.20;;;;;;694220;28;541;-82
2022/04/26 04:16:48;;;;;;;;;;;23.60;44.50;;;;;;693762;28;884;-81
2022/04/26 04:17:09;;;;;;;;;;;23.10;44.20;;;;;;691547;28;882;-82
2022/04/26 04:17:30;;;;;;;;;;;23.10;44.10;;;;;;689054;28;1191;-81
2022/04/26 04:17:51;;;;;;;;;;;23.10;44.20;;;;;;691433;28;783;-82
2022/04/26 04:19:30;;;;;;;;;;;23.10;44.20;;;;;;691384;28;680;-82
2022/04/26 04:19:50;;;;;;;;;;;23.10;44.20;;;;;;688510;28;1409;-81
2022/04/26 04:20:11;;;;;;;;;;;23.10;44.10;;;;;;688632;28;1516;-82
2022/04/26 04:20:34;;;;;;;;;;;23.10;44.20;;;;;;691336;28;846;-81
2022/04/26 04:20:55;;;;;;;;;;;23.10;44.10;;;;;;691261;28;1086;-81
2022/04/26 04:21:16;;;;;;;;;;;23.10;44.70;;;;;;688570;28;835;-82
2022/04/26 04:21:36;;;;;;;;;;;23.10;44.70;;;;;;689526;28;795;-82
2022/04/26 04:21:57;;;;;;;;;;;23.10;44.40;;;;;;691355;28;941;-81
2022/04/26 04:22:17;;;;;;;;;;;23.10;44.30;;;;;;688583;28;1632;-82
2022/04/26 04:22:38;;;;;;;;;;;23.10;44.40;;;;;;688634;28;1071;-82
2022/04/26 04:22:59;;;;;;;;;;;23.10;44.40;;;;;;688929;28;1289;-82
2022/04/26 04:23:20;;;;;;;;;;;23.10;44.50;;;;;;691322;28;843;-82
2022/04/26 04:23:41;;;;;;;;;;;23.10;44.10;;;;;;691436;28;909;-82
2022/04/26 04:24:01;;;;;;;;;;;23.10;44.20;;;;;;692039;28;566;-82
2022/04/26 04:24:22;;;;;;;;;;;23.10;44.20;;;;;;694161;28;798;-82
2022/04/26 04:24:42;;;;;;;;;;;23.10;44.10;;;;;;694214;28;786;-81
2022/04/26 04:25:03;;;;;;;;;;;23.10;44.20;;;;;;693832;28;969;-81
2022/04/26 04:25:24;;;;;;;;;;;23.10;44.10;;;;;;691484;28;969;-82
2022/04/26 04:25:44;;;;;;;;;;;23.10;44.20;;;;;;691711;28;786;-82
2022/04/26 04:26:05;;;;;;;;;;;23.10;44.20;;;;;;691693;28;906;-81
2022/04/26 04:26:28;;;;;;;;;;;23.10;44.20;;;;;;691372;28;810;-82
2022/04/26 04:26:49;;;;;;;;;;;23.00;44.30;;;;;;691330;28;1210;-82
2022/04/26 04:27:13;;;;;;;;;;;23.10;44.30;;;;;;691277;28;877;-81
2022/04/26 04:27:33;;;;;;;;;;;23.00;44.40;;;;;;688743;28;1242;-81
2022/04/26 04:27:54;;;;;;;;;;;23.10;44.30;;;;;;688635;28;933;-81
2022/04/26 04:28:15;;;;;;;;;;;23.10;44.30;;;;;;689667;28;882;-82
2022/04/26 04:28:35;;;;;;;;;;;23.10;44.50;;;;;;691411;28;1973;-82
2022/04/26 04:28:56;;;;;;;;;;;23.10;44.60;;;;;;691424;28;854;-79
2022/04/26 04:29:16;;;;;;;;;;;23.10;44.20;;;;;;691303;28;926;-81
2022/04/26 04:29:37;;;;;;;;;;;23.10;44.20;;;;;;691598;28;863;-80
2022/04/26 04:30:02;;;;;;;;;;;23.00;44.20;;;;;;691583;28;989;-81
2022/04/26 04:30:22;;;;;;;;;;;23.00;44.20;;;;;;691585;28;1238;-80
2022/04/26 04:30:43;;;;;;;;;;;23.00;44.20;;;;;;691500;28;942;-82
2022/04/26 04:31:04;;;;;;;;;;;23.00;44.30;;;;;;691530;28;956;-80
2022/04/26 04:31:24;;;;;;;;;;;23.70;44.80;;;;;;690998;28;1300;-80
2022/04/26 04:31:45;;;;;;;;;;;23.00;44.20;;;;;;691468;28;818;-80
2022/04/26 04:32:06;;;;;;;;;;;23.00;44.20;;;;;;691455;28;842;-80
2022/04/26 04:32:26;;;;;;;;;;;23.00;44.20;;;;;;691376;28;846;-81
2022/04/26 04:32:47;;;;;;;;;;;23.00;44.20;;;;;;691446;28;874;-80
2022/04/26 04:33:07;;;;;;;;;;;23.00;44.30;;;;;;691478;28;878;-81
2022/04/26 04:33:28;;;;;;;;;;;23.00;44.20;;;;;;691461;28;944;-81
2022/04/26 04:33:49;;;;;;;;;;;23.00;44.20;;;;;;691536;28;835;-81
2022/04/26 04:34:09;;;;;;;;;;;23.00;44.20;;;;;;691519;28;954;-81
2022/04/26 04:34:30;;;;;;;;;;;23.00;44.20;;;;;;691626;28;851;-81
2022/04/26 04:34:50;;;;;;;;;;;23.00;44.20;;;;;;691663;28;870;-81
2022/04/26 04:35:11;;;;;;;;;;;23.00;44.30;;;;;;691512;28;894;-81
2022/04/26 04:35:32;;;;;;;;;;;23.00;44.20;;;;;;691139;28;1311;-82
2022/04/26 04:35:53;;;;;;;;;;;23.00;44.20;;;;;;691418;28;900;-80
2022/04/26 04:36:15;;;;;;;;;;;23.00;44.20;;;;;;691076;28;1138;-80
2022/04/26 04:36:36;;;;;;;;;;;23.00;44.30;;;;;;691508;28;830;-81
2022/04/26 04:36:57;;;;;;;;;;;23.00;44.50;;;;;;688660;28;1278;-80
2022/04/26 04:37:17;;;;;;;;;;;24.10;45.40;;;;;;689297;28;831;-80
2022/04/26 04:37:38;;;;;;;;;;;23.00;44.20;;;;;;691471;28;803;-87
2022/04/26 04:37:58;;;;;;;;;;;23.00;44.30;;;;;;691448;28;779;-83
2022/04/26 04:38:19;;;;;;;;;;;23.00;44.20;;;;;;691392;28;944;-84
2022/04/26 04:38:39;;;;;;;;;;;23.00;44.40;;;;;;691461;28;830;-84
2022/04/26 04:39:00;;;;;;;;;;;23.00;44.30;;;;;;691696;28;878;-84
2022/04/26 04:39:23;;;;;;;;;;;23.00;44.50;;;;;;691642;28;822;-87
2022/04/26 04:39:43;;;;;;;;;;;23.00;44.30;;;;;;691268;28;1369;-85
2022/04/26 04:40:04;;;;;;;;;;;23.00;44.40;;;;;;691543;28;925;-85
2022/04/26 04:40:25;;;;;;;;;;;23.00;44.30;;;;;;688514;28;1195;-85
2022/04/26 04:40:45;;;;;;;;;;;23.00;44.40;;;;;;688734;28;1319;-85
2022/04/26 04:41:06;;;;;;;;;;;23.00;44.50;;;;;;688809;28;775;-82
2022/04/26 04:41:26;;;;;;;;;;;23.00;44.70;;;;;;688614;28;831;-81
2022/04/26 04:41:47;;;;;;;;;;;23.00;44.70;;;;;;688687;28;810;-82
2022/04/26 04:42:08;;;;;;;;;;;23.00;44.80;;;;;;689109;28;894;-84
2022/04/26 04:42:28;;;;;;;;;;;23.00;44.90;;;;;;691520;28;842;-84
2022/04/26 04:42:49;;;;;;;;;;;23.00;45.20;;;;;;691554;28;866;-83
2022/04/26 04:43:10;;;;;;;;;;;23.00;45.40;;;;;;691560;28;929;-82
2022/04/26 04:43:32;;;;;;;;;;;23.00;45.30;;;;;;691710;28;949;-82
2022/04/26 04:43:52;;;;;;;;;;;23.00;45.40;;;;;;690477;28;1194;-83
2022/04/26 04:44:13;;;;;;;;;;;23.00;46.20;;;;;;691339;28;945;-82
2022/04/26 04:44:33;;;;;;;;;;;23.00;45.90;;;;;;691502;28;830;-81
2022/04/26 04:44:54;;;;;;;;;;;23.00;46.20;;;;;;691332;28;795;-83
2022/04/26 04:45:14;;;;;;;;;;;23.00;46.90;;;;;;691318;28;957;-85
2022/04/26 04:45:35;;;;;;;;;;;23.00;46.40;;;;;;691843;28;1107;-86
2022/04/26 04:45:56;;;;;;;;;;;23.00;47.40;;;;;;691372;28;893;-81
2022/04/26 04:46:16;;;;;;;;;;;23.00;46.30;;;;;;691410;28;954;-82
2022/04/26 04:46:37;;;;;;;;;;;23.00;46.20;;;;;;691570;28;836;-85
2022/04/26 04:47:00;;;;;;;;;;;23.00;46.20;;;;;;691515;28;834;-83
2022/04/26 04:47:20;;;;;;;;;;;23.00;46.90;;;;;;691545;28;861;-86
2022/04/26 04:47:41;;;;;;;;;;;23.00;46.40;;;;;;691821;28;802;-85
2022/04/26 04:48:01;;;;;;;;;;;23.00;46.30;;;;;;691899;28;807;-86
2022/04/26 04:48:22;;;;;;;;;;;23.00;46.40;;;;;;691642;28;882;-85
2022/04/26 04:48:43;;;;;;;;;;;23.00;46.50;;;;;;691567;28;1906;-85
2022/04/26 04:49:03;;;;;;;;;;;23.00;46.60;;;;;;691503;28;1189;-85
2022/04/26 04:49:24;;;;;;;;;;;23.00;47.10;;;;;;691378;28;786;-84
2022/04/26 04:49:44;;;;;;;;;;;23.00;46.70;;;;;;691606;28;779;-85
2022/04/26 04:50:05;;;;;;;;;;;23.00;46.50;;;;;;691668;28;830;-84
2022/04/26 04:50:26;;;;;;;;;;;23.00;46.50;;;;;;691468;28;843;-86
2022/04/26 04:50:46;;;;;;;;;;;23.00;46.60;;;;;;691420;28;811;-82
2022/04/26 04:51:07;;;;;;;;;;;23.00;46.50;;;;;;691900;28;882;-83
2022/04/26 04:51:28;;;;;;;;;;;23.00;46.60;;;;;;691666;28;810;-86
2022/04/26 04:51:48;;;;;;;;;;;23.00;46.70;;;;;;691663;28;858;-81
2022/04/26 04:52:09;;;;;;;;;;;22.80;46.60;;;;;;691625;28;926;-81
2022/04/26 04:52:29;;;;;;;;;;;23.00;46.90;;;;;;691624;28;943;-85
2022/04/26 04:52:50;;;;;;;;;;;23.00;46.80;;;;;;691653;28;928;-84
2022/04/26 04:53:11;;;;;;;;;;;23.00;46.80;;;;;;690803;28;1216;-83
2022/04/26 04:53:32;;;;;;;;;;;23.00;48.10;;;;;;691350;28;956;-86
2022/04/26 04:53:52;;;;;;;;;;;23.00;46.80;;;;;;691602;28;882;-87
2022/04/26 04:54:13;;;;;;;;;;;23.00;47.00;;;;;;691509;28;1320;-85
2022/04/26 04:54:34;;;;;;;;;;;23.00;47.00;;;;;;691772;28;952;-85
2022/04/26 04:54:54;;;;;;;;;;;23.00;47.00;;;;;;691759;28;799;-84
2022/04/26 04:55:15;;;;;;;;;;;23.00;47.40;;;;;;691788;28;1922;-82
2022/04/26 04:55:35;;;;;;;;;;;23.00;47.10;;;;;;691662;28;810;-83
2022/04/26 04:55:56;;;;;;;;;;;23.00;47.30;;;;;;691439;28;926;-82
2022/04/26 04:56:16;;;;;;;;;;;23.00;47.40;;;;;;691647;28;870;-83
2022/04/26 04:56:37;;;;;;;;;;;23.00;47.50;;;;;;691653;28;886;-83
2022/04/26 04:56:57;;;;;;;;;;;23.00;47.70;;;;;;689031;28;1395;-83
2022/04/26 04:57:18;;;;;;;;;;;23.00;47.90;;;;;;691485;28;1338;-83
2022/04/26 04:57:39;;;;;;;;;;;23.00;48.10;;;;;;691642;28;822;-84
2022/04/26 04:57:59;;;;;;;;;;;23.00;47.80;;;;;;691900;28;815;-83
2022/04/26 04:58:20;;;;;;;;;;;23.00;47.60;;;;;;691767;28;814;-83
2022/04/26 04:58:40;;;;;;;;;;;23.00;47.50;;;;;;691510;28;917;-82
2022/04/26 04:59:01;;;;;;;;;;;23.00;47.70;;;;;;693366;28;1124;-83
2022/04/26 04:59:21;;;;;;;;;;;23.00;47.40;;;;;;694660;28;953;-83
2022/04/26 04:59:42;;;;;;;;;;;23.00;47.10;;;;;;694461;28;977;-83
2022/04/26 05:00:03;;;;;;;;;;;23.00;47.10;;;;;;694467;28;882;-81
2022/04/26 05:00:24;;;;;;;;;;;23.00;46.80;;;;;;694217;28;823;-81
2022/04/26 05:00:45;;;;;;;;;;;23.00;47.00;;;;;;694313;28;771;-82
2022/04/26 05:01:06;;;;;;;;;;;23.00;47.10;;;;;;696570;28;1456;-81
2022/04/26 05:01:26;;;;;;;;;;;23.00;47.00;;;;;;696756;28;861;-80
2022/04/26 05:01:47;;;;;;;;;;;23.00;47.10;;;;;;693597;28;1172;-81
2022/04/26 05:02:07;;;;;;;;;;;23.00;46.90;;;;;;694080;28;1175;-82
2022/04/26 05:02:28;;;;;;;;;;;23.00;46.70;;;;;;691582;28;1226;-81
2022/04/26 05:02:49;;;;;;;;;;;23.00;46.70;;;;;;693937;28;871;-82
2022/04/26 05:03:10;;;;;;;;;;;23.00;46.70;;;;;;694067;28;949;-81
2022/04/26 05:03:31;;;;;;;;;;;23.00;46.60;;;;;;694197;28;878;-81
2022/04/26 05:03:53;;;;;;;;;;;23.00;46.60;;;;;;693908;28;850;-81
2022/04/26 05:04:13;;;;;;;;;;;23.00;46.50;;;;;;694160;28;960;-81
2022/04/26 05:04:34;;;;;;;;;;;23.00;46.40;;;;;;692645;28;1238;-80
2022/04/26 05:04:54;;;;;;;;;;;23.00;46.40;;;;;;692563;28;1203;-81
2022/04/26 05:05:15;;;;;;;;;;;23.00;46.30;;;;;;692675;28;1266;-81
2022/04/26 05:05:36;;;;;;;;;;;23.00;46.40;;;;;;693559;28;1286;-81
2022/04/26 05:05:56;;;;;;;;;;;23.00;46.40;;;;;;694259;28;1319;-81
2022/04/26 05:06:18;;;;;;;;;;;23.00;47.60;;;;;;694209;28;1276;-81
2022/04/26 05:06:38;;;;;;;;;;;23.00;46.40;;;;;;694231;28;1477;-82
2022/04/26 05:06:59;;;;;;;;;;;23.00;46.60;;;;;;694151;28;1255;-82
2022/04/26 05:07:19;;;;;;;;;;;23.00;47.00;;;;;;694221;28;1370;-80
2022/04/26 05:07:40;;;;;;;;;;;23.00;46.70;;;;;;693637;28;1370;-80
2022/04/26 05:08:01;;;;;;;;;;;23.00;46.60;;;;;;694096;28;1310;-80
2022/04/26 05:08:21;;;;;;;;;;;23.00;46.60;;;;;;694110;28;1334;-81
2022/04/26 05:08:43;;;;;;;;;;;23.00;46.60;;;;;;693699;28;1886;-81
2022/04/26 05:09:03;;;;;;;;;;;23.00;46.60;;;;;;694223;28;942;-81
2022/04/26 05:09:24;;;;;;;;;;;23.00;46.50;;;;;;694269;28;1283;-81
2022/04/26 05:09:44;;;;;;;;;;;23.00;46.80;;;;;;690396;28;1316;-81
2022/04/26 05:10:06;;;;;;;;;;;23.00;47.00;;;;;;690666;28;1382;-81
2022/04/26 05:10:27;;;;;;;;;;;23.00;46.50;;;;;;691406;28;1411;-80
2022/04/26 05:10:47;;;;;;;;;;;23.00;46.40;;;;;;691019;28;1463;-80
2022/04/26 05:11:08;;;;;;;;;;;23.00;46.40;;;;;;691208;28;1419;-82
2022/04/26 05:11:29;;;;;;;;;;;23.00;46.30;;;;;;691687;28;1379;-82
2022/04/26 05:11:49;;;;;;;;;;;23.00;46.40;;;;;;694015;28;1272;-82
2022/04/26 05:12:10;;;;;;;;;;;23.00;46.30;;;;;;694174;28;1260;-83
2022/04/26 05:12:30;;;;;;;;;;;23.00;46.30;;;;;;694388;28;1252;-82
2022/04/26 05:12:51;;;;;;;;;;;23.00;46.20;;;;;;693839;28;1083;-80
2022/04/26 05:13:11;;;;;;;;;;;23.00;46.20;;;;;;693718;28;1244;-82
2022/04/26 05:13:32;;;;;;;;;;;23.00;46.30;;;;;;694231;28;1259;-81
2022/04/26 05:13:53;;;;;;;;;;;23.00;46.20;;;;;;694223;28;1275;-81
2022/04/26 05:14:13;;;;;;;;;;;23.00;46.20;;;;;;694355;28;1342;-82
2022/04/26 05:14:34;;;;;;;;;;;23.00;46.20;;;;;;694135;28;1344;-79
2022/04/26 05:14:54;;;;;;;;;;;23.00;46.10;;;;;;694021;28;1359;-80
2022/04/26 05:15:15;;;;;;;;;;;23.00;46.10;;;;;;694154;28;1422;-81
2022/04/26 05:15:38;;;;;;;;;;;23.00;46.10;;;;;;694277;28;1311;-81
2022/04/26 05:15:59;;;;;;;;;;;23.00;46.10;;;;;;693722;28;1205;-82
2022/04/26 05:16:20;;;;;;;;;;;23.00;46.20;;;;;;694174;28;1406;-82
2022/04/26 05:16:40;;;;;;;;;;;23.00;46.00;;;;;;694208;28;1450;-82
2022/04/26 05:17:01;;;;;;;;;;;23.00;46.00;;;;;;693916;28;1486;-81
2022/04/26 05:17:21;;;;;;;;;;;23.00;46.10;;;;;;694254;28;1396;-81
2022/04/26 05:17:42;;;;;;;;;;;23.00;46.10;;;;;;694144;28;1295;-82
2022/04/26 05:18:02;;;;;;;;;;;23.00;46.00;;;;;;693996;28;1338;-82
2022/04/26 05:18:23;;;;;;;;;;;23.00;46.00;;;;;;694221;28;1271;-84
2022/04/26 05:18:44;;;;;;;;;;;23.00;45.80;;;;;;693908;28;1323;-84
2022/04/26 05:19:04;;;;;;;;;;;23.00;45.70;;;;;;694209;28;1394;-85
2022/04/26 05:19:25;;;;;;;;;;;23.00;45.60;;;;;;693765;28;1243;-83
2022/04/26 05:19:45;;;;;;;;;;;23.00;45.70;;;;;;693859;28;1316;-84
2022/04/26 05:20:06;;;;;;;;;;;23.00;45.60;;;;;;694144;28;1422;-83
2022/04/26 05:20:27;;;;;;;;;;;23.00;45.70;;;;;;693421;28;1276;-83
2022/04/26 05:20:47;;;;;;;;;;;23.00;45.90;;;;;;694234;28;1335;-85
2022/04/26 05:21:08;;;;;;;;;;;21.10;45.20;;;;;;693935;28;1259;-85
2022/04/26 05:21:29;;;;;;;;;;;23.00;46.00;;;;;;696757;28;1275;-84
2022/04/26 05:21:49;;;;;;;;;;;23.00;46.20;;;;;;696342;28;1402;-85
2022/04/26 05:22:10;;;;;;;;;;;23.00;45.80;;;;;;696901;28;1398;-85
2022/04/26 05:22:31;;;;;;;;;;;23.00;45.90;;;;;;696863;28;1331;-83
2022/04/26 05:24:53;;;;;;;;;;;23.00;45.90;;;;;;685087;28;1174;-86
2022/04/26 05:25:14;;;;;;;;;;;23.00;47.60;;;;;;684916;28;1340;-86
2022/04/26 05:25:35;;;;;;;;;;;23.10;47.30;;;;;;684558;28;1379;-85
2022/04/26 05:25:55;;;;;;;;;;;23.00;45.90;;;;;;683024;28;1350;-84
2022/04/26 05:26:17;;;;;;;;;;;23.00;46.00;;;;;;685237;28;1405;-85
2022/04/26 05:26:38;;;;;;;;;;;23.10;46.30;;;;;;683565;28;1499;-85
2022/04/26 05:26:59;;;;;;;;;;;23.10;45.80;;;;;;681591;29;1364;-85
2022/04/26 05:27:20;;;;;;;;;;;23.10;45.90;;;;;;680557;29;1432;-87
2022/04/26 05:27:41;;;;;;;;;;;23.10;45.80;;;;;;680492;29;1428;-84
2022/04/26 05:28:01;;;;;;;;;;;23.00;45.80;;;;;;680412;29;1294;-82
2022/04/26 05:28:22;;;;;;;;;;;23.10;46.20;;;;;;680541;29;835;-83
2022/04/26 05:28:43;;;;;;;;;;;23.00;45.80;;;;;;680578;29;1958;-84
2022/04/26 05:29:05;;;;;;;;;;;23.10;45.80;;;;;;680642;29;787;-82
2022/04/26 05:29:26;;;;;;;;;;;23.10;46.00;;;;;;680561;29;1009;-82
2022/04/26 05:29:50;;;;;;;;;;;23.10;45.70;;;;;;680586;29;751;-82
2022/04/26 05:30:12;;;;;;;;;;;23.10;45.80;;;;;;680623;29;835;-82
2022/04/26 05:30:32;;;;;;;;;;;23.10;45.90;;;;;;680728;29;879;-82
2022/04/26 05:30:54;;;;;;;;;;;23.10;45.90;;;;;;680624;29;820;-83
2022/04/26 05:31:14;;;;;;;;;;;23.10;45.40;;;;;;680583;29;884;-81
2022/04/26 05:31:36;;;;;;;;;;;23.10;45.50;;;;;;680686;29;820;-82
2022/04/26 05:31:56;;;;;;;;;;;23.10;45.60;;;;;;680088;29;1250;-80
2022/04/26 05:32:20;;;;;;;;;;;23.10;45.70;;;;;;680494;29;816;-82
2022/04/26 05:32:41;;;;;;;;;;;23.10;45.50;;;;;;680479;29;1104;-82
2022/04/26 05:33:01;;;;;;;;;;;23.10;45.50;;;;;;680591;29;807;-81
2022/04/26 05:33:22;;;;;;;;;;;23.10;46.00;;;;;;680579;29;835;-81
2022/04/26 05:33:43;;;;;;;;;;;23.10;45.80;;;;;;680636;29;863;-81
2022/04/26 05:34:03;;;;;;;;;;;23.10;46.00;;;;;;680555;29;1327;-82
2022/04/26 05:34:24;;;;;;;;;;;23.10;46.70;;;;;;680443;29;823;-80
2022/04/26 05:34:45;;;;;;;;;;;23.10;45.30;;;;;;680516;29;812;-81
2022/04/26 05:35:10;;;;;;;;;;;23.10;45.60;;;;;;680594;29;883;-81
2022/04/26 05:35:31;;;;;;;;;;;23.10;45.20;;;;;;680702;29;863;-81
2022/04/26 05:35:52;;;;;;;;;;;23.10;45.40;;;;;;680486;29;1128;-82
2022/04/26 05:36:13;;;;;;;;;;;23.20;45.70;;;;;;680509;29;776;-82
2022/04/26 05:36:34;;;;;;;;;;;22.80;45.10;;;;;;680485;29;1194;-82
2022/04/26 05:36:57;;;;;;;;;;;23.10;45.20;;;;;;680490;29;859;-82
2022/04/26 05:37:17;;;;;;;;;;;23.20;45.20;;;;;;680460;29;831;-82
2022/04/26 05:37:38;;;;;;;;;;;23.10;45.20;;;;;;680587;29;950;-81
2022/04/26 05:37:58;;;;;;;;;;;23.20;45.50;;;;;;680479;29;876;-82
2022/04/26 05:38:19;;;;;;;;;;;23.10;45.20;;;;;;680571;29;784;-83
2022/04/26 05:38:40;;;;;;;;;;;23.10;45.00;;;;;;677740;29;1198;-83
2022/04/26 05:39:01;;;;;;;;;;;23.10;45.00;;;;;;678028;29;570;-79
2022/04/26 05:39:22;;;;;;;;;;;23.20;45.30;;;;;;677814;29;1329;-80
2022/04/26 05:39:42;;;;;;;;;;;23.10;45.00;;;;;;677890;29;836;-80
2022/04/26 05:40:03;;;;;;;;;;;23.10;44.90;;;;;;677949;29;812;-81
2022/04/26 05:40:24;;;;;;;;;;;23.10;45.00;;;;;;680933;29;827;-80
2022/04/26 05:40:45;;;;;;;;;;;23.20;45.20;;;;;;683074;29;776;-81
2022/04/26 05:41:05;;;;;;;;;;;23.20;45.40;;;;;;682828;29;886;-82
2022/04/26 05:41:26;;;;;;;;;;;23.10;45.80;;;;;;680460;29;920;-80
2022/04/26 05:41:47;;;;;;;;;;;23.20;45.10;;;;;;680456;29;860;-80
2022/04/26 05:42:07;;;;;;;;;;;23.20;45.20;;;;;;680571;29;1000;-80
2022/04/26 05:42:31;;;;;;;;;;;23.20;44.90;;;;;;680558;29;831;-84
2022/04/26 05:42:52;;;;;;;;;;;23.20;45.10;;;;;;680409;29;883;-80
2022/04/26 05:43:12;;;;;;;;;;;23.20;45.10;;;;;;680544;29;839;-80
2022/04/26 05:43:33;;;;;;;;;;;23.10;44.80;;;;;;680647;29;1027;-81
2022/04/26 05:43:53;;;;;;;;;;;23.20;45.00;;;;;;680391;29;856;-81
2022/04/26 05:44:14;;;;;;;;;;;23.20;44.90;;;;;;680426;29;864;-82
2022/04/26 05:44:38;;;;;;;;;;;23.20;45.10;;;;;;680636;29;872;-81
2022/04/26 05:44:58;;;;;;;;;;;23.10;44.80;;;;;;680378;29;894;-81
2022/04/26 05:45:19;;;;;;;;;;;23.20;45.00;;;;;;681548;29;1154;-82